Time;durP1;ratioP1;P1;durP2;ratioP2;P2;SDS_P1;SDS_P2;PMS_P1;PMS_P2;Temp;Humidity;BMP_temperature;BMP_pressure;BME280_temperature;BME280_humidity;BME280_pressure;Samples;Min_cycle;Max_cycle;Signal;HPM_P1;HPM_P2
2023/12/28 00:00:06;;;;;;;1.00;1.00;;;-9.00;99.90;;;;;;5049416;28;20245;-69
2023/12/28 00:02:32;;;;;;;1.00;1.00;;;-9.00;99.90;;;;;;5055743;28;20671;-69
2023/12/28 00:04:58;;;;;;;1.00;1.00;;;-9.00;99.90;;;;;;5087701;28;20188;-69
2023/12/28 00:07:24;;;;;;;0.90;0.90;;;-8.90;99.90;;;;;;5087770;28;20231;-69
2023/12/28 00:09:49;;;;;;;0.90;0.90;;;-8.90;99.90;;;;;;5069588;28;20385;-69
2023/12/28 00:12:15;;;;;;;0.90;0.90;;;-8.80;99.90;;;;;;5069490;28;20200;-69
2023/12/28 00:14:41;;;;;;;1.00;1.00;;;-8.80;99.90;;;;;;5088364;28;20204;-69
2023/12/28 00:17:06;;;;;;;0.90;0.90;;;-8.80;99.90;;;;;;5073263;28;20200;-68
2023/12/28 00:19:32;;;;;;;1.00;1.00;;;-8.70;99.90;;;;;;5073265;28;20211;-69
2023/12/28 00:21:57;;;;;;;1.00;1.00;;;-8.70;99.90;;;;;;5073599;28;20434;-69
2023/12/28 00:24:23;;;;;;;0.90;0.90;;;-8.50;99.90;;;;;;5069789;28;20212;-68
2023/12/28 00:26:49;;;;;;;0.90;0.90;;;-8.50;99.90;;;;;;5053398;28;20201;-69
2023/12/28 00:29:14;;;;;;;0.90;0.90;;;-8.40;99.90;;;;;;5071337;28;20200;-69
2023/12/28 00:31:40;;;;;;;0.90;0.90;;;-8.40;99.90;;;;;;5072681;28;20562;-69
2023/12/28 00:34:06;;;;;;;0.90;0.90;;;-8.40;99.90;;;;;;5072924;28;20675;-69
2023/12/28 00:36:32;;;;;;;0.90;0.90;;;-8.40;99.90;;;;;;5091017;28;20212;-70
2023/12/28 00:38:57;;;;;;;0.90;0.90;;;-8.40;99.90;;;;;;5091288;28;20263;-68
2023/12/28 00:41:23;;;;;;;0.80;0.80;;;-8.40;99.90;;;;;;5090697;28;20199;-70
2023/12/28 00:43:48;;;;;;;0.90;0.90;;;-8.30;99.90;;;;;;5091007;28;20267;-69
2023/12/28 00:46:14;;;;;;;1.00;1.00;;;-8.30;99.90;;;;;;5090861;28;20233;-69
2023/12/28 00:48:40;;;;;;;0.90;0.90;;;-8.20;99.90;;;;;;5091193;28;20192;-68
2023/12/28 00:51:05;;;;;;;1.00;1.00;;;-8.20;99.90;;;;;;5090936;28;20207;-68
2023/12/28 00:53:31;;;;;;;1.00;1.00;;;-8.20;99.90;;;;;;5090652;28;20204;-68
2023/12/28 00:55:57;;;;;;;0.90;0.90;;;-8.20;99.90;;;;;;5090563;28;20208;-69
2023/12/28 00:58:22;;;;;;;0.90;0.90;;;-8.10;99.90;;;;;;5090548;28;21889;-68
2023/12/28 01:00:48;;;;;;;0.90;0.90;;;-8.10;99.90;;;;;;5090720;28;20577;-69
2023/12/28 01:03:13;;;;;;;0.80;0.80;;;-8.10;99.90;;;;;;5090907;28;20697;-69
2023/12/28 01:05:39;;;;;;;0.90;0.90;;;-8.10;99.90;;;;;;5090351;28;20231;-69
2023/12/28 01:08:05;;;;;;;0.90;0.90;;;-8.10;99.90;;;;;;5090637;28;20253;-69
2023/12/28 01:10:31;;;;;;;1.43;1.33;;;-8.10;99.90;;;;;;5090170;28;20196;-68
2023/12/28 01:12:56;;;;;;;1.03;1.03;;;-8.10;99.90;;;;;;5090291;28;20568;-70
2023/12/28 01:15:22;;;;;;;0.90;0.90;;;-8.10;99.90;;;;;;5090205;28;20211;-68
2023/12/28 01:17:48;;;;;;;0.97;0.97;;;-8.10;99.90;;;;;;5090393;28;20195;-69
2023/12/28 01:20:13;;;;;;;0.90;0.90;;;-8.10;99.90;;;;;;5090158;28;20223;-71
2023/12/28 01:22:39;;;;;;;0.90;0.90;;;-8.10;99.90;;;;;;5090128;28;20242;-69
2023/12/28 01:25:05;;;;;;;0.90;0.90;;;-8.00;99.90;;;;;;5090623;28;20192;-69
2023/12/28 01:27:30;;;;;;;0.90;0.90;;;-8.00;99.90;;;;;;5089395;28;20200;-69
2023/12/28 01:29:56;;;;;;;0.90;0.90;;;-8.00;99.90;;;;;;5108571;28;20207;-69
2023/12/28 01:32:22;;;;;;;1.00;1.00;;;-8.00;99.90;;;;;;5110699;28;20199;-71
2023/12/28 01:34:47;;;;;;;0.90;0.90;;;-8.00;99.90;;;;;;5110668;28;20578;-69
2023/12/28 01:37:13;;;;;;;0.87;0.87;;;-8.00;99.90;;;;;;5110431;28;20191;-69
2023/12/28 01:39:39;;;;;;;0.80;0.80;;;-7.90;99.90;;;;;;5105513;28;20287;-71
2023/12/28 01:42:05;;;;;;;0.90;0.90;;;-8.00;99.90;;;;;;5071721;28;20727;-70
2023/12/28 01:44:32;;;;;;;0.90;0.90;;;-7.90;99.90;;;;;;5069681;28;20319;-69
2023/12/28 01:46:58;;;;;;;0.90;0.90;;;-8.00;99.90;;;;;;5069600;28;20799;-69
2023/12/28 01:49:24;;;;;;;0.90;0.90;;;-7.90;99.90;;;;;;5069465;28;20200;-70
2023/12/28 01:51:50;;;;;;;0.87;0.87;;;-8.00;99.90;;;;;;5085014;28;20569;-70
2023/12/28 01:54:17;;;;;;;0.90;0.90;;;-8.00;99.90;;;;;;5069762;28;20185;-69
2023/12/28 01:56:44;;;;;;;0.90;0.90;;;-8.00;99.90;;;;;;5089983;28;20715;-69
2023/12/28 01:59:10;;;;;;;0.83;0.83;;;-8.00;99.90;;;;;;5089533;28;20236;-69
2023/12/28 02:01:36;;;;;;;1.87;1.77;;;-8.00;99.90;;;;;;5089317;28;20663;-69
2023/12/28 02:04:02;;;;;;;0.80;0.80;;;-8.00;99.90;;;;;;5088997;28;20325;-72
2023/12/28 02:06:28;;;;;;;0.80;0.80;;;-8.00;99.90;;;;;;5089236;28;20243;-69
2023/12/28 02:08:54;;;;;;;1.00;1.00;;;-7.90;99.90;;;;;;5089268;28;20563;-69
2023/12/28 02:11:20;;;;;;;0.90;0.90;;;-7.90;99.90;;;;;;5088732;28;20208;-69
2023/12/28 02:13:46;;;;;;;0.90;0.90;;;-7.90;99.90;;;;;;5089602;28;20196;-68
2023/12/28 02:16:41;;;;;;;0.90;0.90;;;-7.90;99.90;;;;;;5088445;28;20220;-69
2023/12/28 02:19:42;;;;;;;0.90;0.90;;;-7.90;99.90;;;;;;5067171;28;20205;-69
2023/12/28 02:22:09;;;;;;;0.90;0.90;;;-7.90;99.90;;;;;;5064974;28;20684;-70
2023/12/28 02:25:02;;;;;;;0.90;0.90;;;-7.90;99.90;;;;;;5078977;28;20747;-70
2023/12/28 02:27:28;;;;;;;1.17;1.17;;;-7.90;99.90;;;;;;5109356;28;20756;-69
2023/12/28 02:29:55;;;;;;;0.93;0.93;;;-7.90;99.90;;;;;;5091330;28;20196;-69
2023/12/28 02:32:32;;;;;;;0.90;0.90;;;-7.90;99.90;;;;;;5091073;28;20718;-69
2023/12/28 02:35:24;;;;;;;0.90;0.90;;;-7.90;99.90;;;;;;5109409;28;20199;-69
2023/12/28 02:37:53;;;;;;;0.97;0.97;;;-7.80;99.90;;;;;;5063390;28;20197;-69
2023/12/28 02:40:20;;;;;;;0.80;0.80;;;-7.80;99.90;;;;;;5068758;28;20200;-70
2023/12/28 02:42:46;;;;;;;0.80;0.80;;;-7.80;99.90;;;;;;5050464;28;20197;-70
2023/12/28 02:45:12;;;;;;;0.90;0.90;;;-7.80;99.90;;;;;;5068625;28;20185;-68
2023/12/28 02:47:38;;;;;;;0.90;0.90;;;-7.80;99.90;;;;;;5068346;28;20218;-69
2023/12/28 02:50:04;;;;;;;0.90;0.90;;;-7.80;99.90;;;;;;5068277;28;20243;-69
2023/12/28 02:52:29;;;;;;;1.10;1.10;;;-7.90;99.90;;;;;;5084208;28;20204;-69
2023/12/28 02:54:55;;;;;;;0.90;0.90;;;-7.90;99.90;;;;;;5088223;28;20204;-68
2023/12/28 02:57:21;;;;;;;0.97;0.97;;;-7.90;99.90;;;;;;5069949;28;20192;-69
2023/12/28 02:59:47;;;;;;;0.90;0.90;;;-7.80;99.90;;;;;;5088978;28;20192;-70
2023/12/28 03:02:13;;;;;;;0.80;0.80;;;-7.80;99.90;;;;;;5070048;28;20279;-68
2023/12/28 03:04:38;;;;;;;1.00;1.00;;;-7.80;99.90;;;;;;5088186;28;20192;-70
2023/12/28 03:07:08;;;;;;;0.90;0.90;;;-7.80;99.90;;;;;;5088259;28;20250;-68
2023/12/28 03:09:34;;;;;;;0.93;0.93;;;-7.80;99.90;;;;;;5087791;28;20660;-69
2023/12/28 03:12:00;;;;;;;1.00;1.00;;;-7.70;99.90;;;;;;5087963;28;20277;-69
2023/12/28 03:14:26;;;;;;;1.00;1.00;;;-7.70;99.90;;;;;;5073252;28;20199;-69
2023/12/28 03:16:52;;;;;;;0.90;0.90;;;-7.70;99.90;;;;;;5068040;28;20315;-69
2023/12/28 03:19:17;;;;;;;0.90;0.90;;;-7.60;99.90;;;;;;5067978;28;20202;-69
2023/12/28 03:21:43;;;;;;;0.90;0.90;;;-7.60;99.90;;;;;;5080265;28;20235;-69
2023/12/28 03:24:09;;;;;;;0.83;0.83;;;-7.50;99.90;;;;;;5087756;28;20207;-70
2023/12/28 03:26:41;;;;;;;0.90;0.90;;;-7.50;99.90;;;;;;5088236;28;20192;-69
2023/12/28 03:29:07;;;;;;;1.00;1.00;;;-7.50;99.90;;;;;;5069476;28;20659;-69
2023/12/28 03:31:33;;;;;;;0.90;0.90;;;-7.40;99.90;;;;;;5087878;28;20185;-71
2023/12/28 03:33:59;;;;;;;1.00;1.00;;;-7.40;99.90;;;;;;5087741;28;20249;-69
2023/12/28 03:36:25;;;;;;;0.80;0.80;;;-7.30;99.90;;;;;;5087533;28;20212;-68
2023/12/28 03:38:51;;;;;;;0.90;0.90;;;-7.30;99.90;;;;;;5087786;28;20195;-69
2023/12/28 03:41:20;;;;;;;0.90;0.90;;;-7.20;99.90;;;;;;5087522;28;20180;-68
2023/12/28 03:43:46;;;;;;;0.90;0.90;;;-7.20;99.90;;;;;;5087646;28;20195;-72
2023/12/28 03:46:12;;;;;;;0.90;0.90;;;-7.10;99.90;;;;;;5069428;28;20545;-70
2023/12/28 03:48:39;;;;;;;0.80;0.80;;;-7.00;99.90;;;;;;5087716;28;20241;-69
2023/12/28 03:51:04;;;;;;;1.20;1.10;;;-7.00;99.90;;;;;;5087063;28;20225;-69
2023/12/28 03:53:33;;;;;;;0.90;0.90;;;-6.90;99.90;;;;;;5087595;28;20196;-70
2023/12/28 03:55:59;;;;;;;0.80;0.80;;;-6.80;99.90;;;;;;5087627;28;20204;-69
2023/12/28 03:58:25;;;;;;;1.00;1.00;;;-6.70;99.90;;;;;;5087349;28;20601;-69
2023/12/28 04:00:51;;;;;;;0.90;0.90;;;-6.60;99.90;;;;;;5080846;28;20189;-69
2023/12/28 04:03:16;;;;;;;0.90;0.90;;;-6.50;99.90;;;;;;5084368;28;20211;-69
2023/12/28 04:05:43;;;;;;;0.80;0.80;;;-6.40;99.90;;;;;;5087089;28;20224;-68
2023/12/28 04:08:09;;;;;;;0.80;0.80;;;-6.40;99.90;;;;;;5087802;28;20773;-69
2023/12/28 04:10:37;;;;;;;0.90;0.90;;;-6.30;99.90;;;;;;5073065;28;20193;-69
2023/12/28 04:13:03;;;;;;;0.90;0.90;;;-6.30;99.90;;;;;;5067224;28;20656;-69
2023/12/28 04:15:29;;;;;;;0.90;0.90;;;-6.30;99.90;;;;;;5067041;28;20299;-69
2023/12/28 04:17:55;;;;;;;0.90;0.90;;;-6.30;99.90;;;;;;5091127;28;20207;-71
2023/12/28 04:20:21;;;;;;;0.80;0.80;;;-6.20;99.90;;;;;;5107425;28;20203;-68
2023/12/28 04:22:47;;;;;;;0.80;0.80;;;-6.20;99.90;;;;;;5107690;28;20195;-69
2023/12/28 04:25:13;;;;;;;0.90;0.90;;;-6.20;99.90;;;;;;5107489;28;20705;-70
2023/12/28 04:27:39;;;;;;;0.90;0.90;;;-6.20;99.90;;;;;;5107483;28;20196;-70
2023/12/28 04:30:06;;;;;;;0.80;0.80;;;-6.10;99.90;;;;;;5084228;28;20208;-71
2023/12/28 04:32:34;;;;;;;0.90;0.90;;;-6.00;99.90;;;;;;5066801;28;20201;-68
2023/12/28 04:35:00;;;;;;;0.90;0.90;;;-6.00;99.90;;;;;;5067042;28;20207;-69
2023/12/28 04:37:26;;;;;;;1.17;1.07;;;-5.90;99.90;;;;;;5066835;28;20653;-69
2023/12/28 04:39:53;;;;;;;0.80;0.80;;;-5.90;99.90;;;;;;5066999;28;20375;-69
2023/12/28 04:42:19;;;;;;;0.80;0.80;;;-5.90;99.90;;;;;;5066918;28;20189;-68
2023/12/28 04:44:44;;;;;;;1.00;1.00;;;-5.80;99.90;;;;;;5080873;28;20197;-69
2023/12/28 04:47:10;;;;;;;0.90;0.90;;;-5.80;99.90;;;;;;5087234;28;20218;-70
2023/12/28 04:49:36;;;;;;;0.80;0.80;;;-5.70;99.90;;;;;;5087045;28;20770;-69
2023/12/28 04:52:01;;;;;;;0.90;0.90;;;-5.60;99.90;;;;;;5087314;28;20268;-69
2023/12/28 04:54:27;;;;;;;1.05;1.05;;;-5.50;99.90;;;;;;5087209;28;20215;-71
2023/12/28 04:56:53;;;;;;;1.00;1.00;;;-5.40;99.90;;;;;;5086923;28;20211;-68
2023/12/28 04:59:18;;;;;;;1.00;1.00;;;-5.30;99.90;;;;;;5087346;28;20517;-68
2023/12/28 05:01:44;;;;;;;0.80;0.80;;;-5.30;99.90;;;;;;5086809;28;20198;-69
2023/12/28 05:04:11;;;;;;;0.90;0.90;;;-5.20;99.90;;;;;;5090788;28;20269;-70
2023/12/28 05:06:37;;;;;;;0.80;0.80;;;-5.10;99.90;;;;;;5078973;28;20220;-69
2023/12/28 05:09:03;;;;;;;1.10;1.10;;;-5.00;99.90;;;;;;5070609;28;20556;-70
2023/12/28 05:11:28;;;;;;;0.82;0.82;;;-4.80;99.90;;;;;;5070310;28;20199;-70
2023/12/28 05:13:54;;;;;;;0.90;0.90;;;-4.70;99.90;;;;;;5089953;28;20294;-69
2023/12/28 05:16:20;;;;;;;0.82;0.82;;;-4.60;99.90;;;;;;5110867;28;20743;-70
2023/12/28 05:18:46;;;;;;;0.82;0.82;;;-4.50;99.90;;;;;;5092398;28;20200;-70
2023/12/28 05:21:13;;;;;;;0.80;0.80;;;-4.40;99.90;;;;;;5110853;28;20184;-70
2023/12/28 05:23:38;;;;;;;0.90;0.90;;;-4.40;99.90;;;;;;5110702;28;20196;-70
2023/12/28 05:26:04;;;;;;;0.80;0.80;;;-4.30;99.90;;;;;;5073371;28;20196;-70
2023/12/28 05:28:30;;;;;;;0.95;0.95;;;-4.30;99.90;;;;;;5070151;28;20554;-69
2023/12/28 05:30:58;;;;;;;0.90;0.90;;;-4.20;99.90;;;;;;5085454;28;20231;-70
2023/12/28 05:33:25;;;;;;;0.90;0.90;;;-4.20;99.90;;;;;;5051800;28;20203;-71
2023/12/28 05:35:50;;;;;;;5.53;1.83;;;-4.20;99.90;;;;;;5069762;28;20602;-70
2023/12/28 05:38:16;;;;;;;0.80;0.80;;;-4.10;99.90;;;;;;5069892;28;20251;-70
2023/12/28 05:40:43;;;;;;;0.80;0.80;;;-4.10;99.90;;;;;;5063016;28;20196;-70
2023/12/28 05:43:09;;;;;;;0.70;0.70;;;-4.00;99.90;;;;;;5090449;28;20219;-71
2023/12/28 05:45:35;;;;;;;0.90;0.90;;;-4.10;99.90;;;;;;5089978;28;20193;-71
2023/12/28 05:48:00;;;;;;;0.70;0.70;;;-4.00;99.90;;;;;;5071582;28;20226;-70
2023/12/28 05:50:26;;;;;;;0.85;0.85;;;-4.00;99.90;;;;;;5071654;28;20196;-71
2023/12/28 05:52:52;;;;;;;0.75;0.75;;;-4.00;99.90;;;;;;5089934;28;20196;-71
2023/12/28 05:55:17;;;;;;;0.80;0.80;;;-3.90;99.90;;;;;;5089506;28;20298;-71
2023/12/28 05:57:43;;;;;;;0.80;0.80;;;-3.90;99.90;;;;;;5090242;28;20188;-71
2023/12/28 06:00:09;;;;;;;0.90;0.90;;;-3.90;99.90;;;;;;5071197;28;20307;-71
2023/12/28 06:02:35;;;;;;;0.80;0.80;;;-3.90;99.90;;;;;;5079778;28;20728;-71
2023/12/28 06:05:01;;;;;;;0.90;0.90;;;-3.80;99.90;;;;;;5051039;28;20200;-71
2023/12/28 06:07:27;;;;;;;0.80;0.80;;;-3.80;99.90;;;;;;5050822;28;20331;-70
2023/12/28 06:09:52;;;;;;;0.87;0.87;;;-3.80;99.90;;;;;;5084433;28;20627;-71
2023/12/28 06:12:18;;;;;;;0.80;0.80;;;-3.80;99.90;;;;;;5091176;28;20195;-70
2023/12/28 06:14:43;;;;;;;0.90;0.90;;;-3.80;99.90;;;;;;5109319;28;20195;-74
2023/12/28 06:17:09;;;;;;;0.90;0.90;;;-3.80;99.90;;;;;;5091515;28;20203;-75
2023/12/28 06:19:35;;;;;;;0.93;0.93;;;-3.80;99.90;;;;;;5091008;28;20200;-73
2023/12/28 06:22:01;;;;;;;0.90;0.90;;;-3.80;99.90;;;;;;5095627;28;20216;-72
2023/12/28 06:24:26;;;;;;;0.80;0.80;;;-3.80;99.90;;;;;;5068977;28;20270;-73
2023/12/28 06:26:52;;;;;;;0.82;0.82;;;-3.80;99.90;;;;;;5069166;28;20205;-74
2023/12/28 06:29:18;;;;;;;0.90;0.90;;;-3.70;99.90;;;;;;5069077;28;20204;-72
2023/12/28 06:31:43;;;;;;;0.80;0.80;;;-3.70;99.90;;;;;;5051077;28;20577;-74
2023/12/28 06:34:09;;;;;;;0.90;0.90;;;-3.70;99.90;;;;;;5050973;28;20207;-75
2023/12/28 06:36:35;;;;;;;0.80;0.80;;;-3.70;99.90;;;;;;5077201;28;20503;-74
2023/12/28 06:39:00;;;;;;;0.85;0.85;;;-3.60;99.90;;;;;;5089193;28;20180;-74
2023/12/28 06:41:26;;;;;;;0.73;0.73;;;-3.60;99.90;;;;;;5088989;28;20267;-74
2023/12/28 06:43:52;;;;;;;0.90;0.90;;;-3.60;99.90;;;;;;5089139;28;20184;-76
2023/12/28 06:46:18;;;;;;;0.70;0.70;;;-3.60;99.90;;;;;;5088888;28;20196;-73
2023/12/28 06:48:44;;;;;;;0.85;0.85;;;-3.60;99.90;;;;;;5089054;28;20707;-76
2023/12/28 06:51:16;;;;;;;0.70;0.70;;;-3.60;99.90;;;;;;5088977;28;20288;-74
2023/12/28 06:53:41;;;;;;;0.82;0.82;;;-3.60;99.90;;;;;;5088767;28;20195;-75
2023/12/28 06:56:07;;;;;;;0.88;0.88;;;-3.50;99.90;;;;;;5088786;28;20208;-73
2023/12/28 06:58:33;;;;;;;0.80;0.80;;;-3.50;99.90;;;;;;5088185;28;20275;-72
2023/12/28 07:00:58;;;;;;;0.90;0.90;;;-3.40;99.90;;;;;;5070430;28;20202;-73
2023/12/28 07:03:30;;;;;;;0.80;0.80;;;-3.50;99.90;;;;;;5088345;28;20203;-74
2023/12/28 07:05:55;;;;;;;0.90;0.90;;;-3.40;99.90;;;;;;5094114;28;20219;-73
2023/12/28 07:08:21;;;;;;;0.90;0.90;;;-3.40;99.90;;;;;;5108695;28;20206;-72
2023/12/28 07:10:47;;;;;;;0.90;0.90;;;-3.40;99.90;;;;;;5077417;28;20236;-74
2023/12/28 07:13:12;;;;;;;0.98;0.98;;;-3.30;99.90;;;;;;5068400;28;20193;-75
2023/12/28 07:15:38;;;;;;;0.80;0.80;;;-3.30;99.90;;;;;;5066461;28;20218;-75
2023/12/28 07:18:04;;;;;;;0.80;0.80;;;-3.30;99.90;;;;;;5067638;28;20279;-76
2023/12/28 07:20:29;;;;;;;0.80;0.80;;;-3.20;99.90;;;;;;5067901;28;20193;-74
2023/12/28 07:22:55;;;;;;;1.00;1.00;;;-3.20;99.90;;;;;;5067631;28;20560;-75
2023/12/28 07:25:21;;;;;;;0.90;0.90;;;-3.20;99.90;;;;;;5049359;28;20204;-69
2023/12/28 07:27:47;;;;;;;1.00;1.00;;;-3.10;99.90;;;;;;5067813;28;20247;-70
2023/12/28 07:30:13;;;;;;;0.90;0.90;;;-3.10;99.90;;;;;;5067709;28;20197;-72
2023/12/28 07:32:39;;;;;;;0.80;0.80;;;-3.10;99.90;;;;;;5074841;28;20247;-70
2023/12/28 07:35:05;;;;;;;0.80;0.80;;;-3.10;99.90;;;;;;5087793;28;20204;-73
2023/12/28 07:37:30;;;;;;;0.90;0.90;;;-3.10;99.90;;;;;;5087803;28;20246;-71
2023/12/28 07:39:57;;;;;;;0.80;0.80;;;-3.10;99.90;;;;;;5087649;28;20656;-69
2023/12/28 07:42:23;;;;;;;0.90;0.90;;;-3.00;99.90;;;;;;5087404;28;20188;-70
2023/12/28 07:44:49;;;;;;;1.00;1.00;;;-3.00;99.90;;;;;;5087986;28;20196;-69
2023/12/28 07:47:15;;;;;;;0.90;0.90;;;-2.90;99.90;;;;;;5087492;28;20188;-73
2023/12/28 07:49:40;;;;;;;0.80;0.80;;;-2.90;99.90;;;;;;5087724;28;20267;-68
2023/12/28 07:52:06;;;;;;;0.95;0.95;;;-2.80;99.90;;;;;;5069294;28;20301;-69
2023/12/28 07:54:32;;;;;;;0.80;0.80;;;-2.90;99.90;;;;;;5087394;28;20224;-70
2023/12/28 07:56:57;;;;;;;0.70;0.70;;;-2.90;99.90;;;;;;5087365;28;20208;-69
2023/12/28 07:59:23;;;;;;;0.80;0.80;;;-2.80;99.90;;;;;;5087511;28;20188;-71
2023/12/28 08:01:49;;;;;;;0.80;0.80;;;-2.80;99.90;;;;;;5090384;28;20651;-71
2023/12/28 08:04:14;;;;;;;0.88;0.88;;;-2.80;99.90;;;;;;5107658;28;20191;-71
2023/12/28 08:06:40;;;;;;;0.85;0.85;;;-2.70;99.90;;;;;;5107560;28;20223;-70
2023/12/28 08:09:06;;;;;;;1.45;1.35;;;-2.70;99.90;;;;;;5120285;28;20199;-73
2023/12/28 08:11:32;;;;;;;0.80;0.80;;;-2.70;99.90;;;;;;5067219;28;20232;-71
2023/12/28 08:13:58;;;;;;;0.73;0.73;;;-2.70;99.90;;;;;;5067043;28;20200;-70
2023/12/28 08:16:24;;;;;;;0.80;0.80;;;-2.70;99.90;;;;;;5067208;28;20212;-70
2023/12/28 08:18:49;;;;;;;0.70;0.70;;;-2.60;99.90;;;;;;5067050;28;20784;-71
2023/12/28 08:21:15;;;;;;;0.85;0.85;;;-2.60;99.90;;;;;;5066995;28;20188;-72
2023/12/28 08:48:36;;;;;;;0.80;0.80;;;-2.30;99.90;;;;;;5078641;28;20176;-73
2023/12/28 08:51:01;;;;;;;1.10;1.10;;;-2.40;99.90;;;;;;5084902;28;20161;-73
2023/12/28 08:53:27;;;;;;;0.95;0.95;;;-2.30;99.90;;;;;;5088378;28;20248;-73
2023/12/28 08:55:53;;;;;;;0.90;0.90;;;-2.30;99.90;;;;;;5072892;28;20227;-73
2023/12/28 08:58:19;;;;;;;7.93;2.08;;;-2.30;99.90;;;;;;5064094;28;20179;-73
2023/12/28 09:00:45;;;;;;;0.80;0.80;;;-2.30;99.90;;;;;;5094343;28;20213;-72
2023/12/28 09:03:11;;;;;;;0.80;0.80;;;-2.30;99.90;;;;;;5094032;28;20160;-72
2023/12/28 11:31:08;;;;;;;1.17;1.17;;;-0.50;99.90;;;;;;3371354;28;22153;-71
2023/12/28 11:33:51;;;;;;;0.80;0.80;;;-0.50;99.90;;;;;;5088111;28;20199;-72
2023/12/28 11:36:40;;;;;;;0.60;0.60;;;-0.60;99.90;;;;;;5070250;28;20215;-74
2023/12/28 11:39:06;;;;;;;1.65;1.55;;;-0.60;99.90;;;;;;5087154;28;20207;-74
2023/12/28 11:41:42;;;;;;;0.70;0.70;;;-0.60;99.90;;;;;;5068394;28;20215;-73
2023/12/28 11:44:08;;;;;;;0.80;0.80;;;-0.60;99.90;;;;;;5067507;28;20189;-74
2023/12/28 11:46:36;;;;;;;0.63;0.63;;;-0.60;99.90;;;;;;5068662;28;20220;-75
2023/12/28 11:49:07;;;;;;;0.68;0.68;;;-0.50;99.90;;;;;;5107986;28;20597;-75
2023/12/28 11:51:35;;;;;;;0.80;0.80;;;-0.50;99.90;;;;;;5107608;28;20563;-74
2023/12/28 11:54:03;;;;;;;0.85;0.85;;;-0.50;99.90;;;;;;5107913;28;20731;-74
2023/12/28 11:56:36;;;;;;;1.70;1.17;;;-0.60;99.90;;;;;;5107551;28;20494;-75
2023/12/28 11:59:02;;;;;;;0.73;0.73;;;-0.50;99.90;;;;;;5113005;27;20206;-75
2023/12/28 12:01:28;;;;;;;0.80;0.80;;;-0.50;99.90;;;;;;5068937;28;20307;-74
2023/12/28 12:03:54;;;;;;;0.70;0.70;;;-0.60;99.90;;;;;;5087606;28;20187;-74
2023/12/28 12:06:19;;;;;;;0.75;0.75;;;-0.60;99.90;;;;;;5087516;28;20200;-73
2023/12/28 12:08:49;;;;;;;0.88;0.85;;;-0.60;99.90;;;;;;5087530;28;20232;-73
2023/12/28 12:11:18;;;;;;;0.70;0.70;;;-0.60;99.90;;;;;;5087780;28;20200;-73
2023/12/28 12:13:44;;;;;;;0.80;0.80;;;-0.50;99.90;;;;;;5091766;28;20690;-73
2023/12/28 12:16:09;;;;;;;0.80;0.80;;;-0.50;99.90;;;;;;5091854;28;20204;-73
2023/12/28 12:18:35;;;;;;;0.80;0.80;;;-0.50;99.90;;;;;;5091320;28;20199;-73
2023/12/28 12:21:02;;;;;;;0.80;0.80;;;-0.50;99.90;;;;;;5073270;28;20208;-73
2023/12/28 12:23:28;;;;;;;0.82;0.82;;;-0.50;99.90;;;;;;5091369;28;20246;-74
2023/12/28 12:25:55;;;;;;;4.05;1.35;;;-0.50;99.90;;;;;;5091448;28;20244;-73
2023/12/28 12:28:20;;;;;;;0.70;0.70;;;-0.40;99.90;;;;;;5091413;28;20576;-73
2023/12/28 12:30:56;;;;;;;0.65;0.65;;;-0.40;99.90;;;;;;5091687;28;20200;-74
2023/12/28 12:33:26;;;;;;;0.95;0.93;;;-0.40;99.90;;;;;;5071274;28;20624;-74
2023/12/28 12:35:52;;;;;;;0.70;0.70;;;-0.40;99.90;;;;;;5066074;28;20538;-73
2023/12/28 12:38:18;;;;;;;0.65;0.65;;;-0.30;99.90;;;;;;5050794;28;20197;-73
2023/12/28 12:40:44;;;;;;;0.77;0.77;;;-0.30;99.90;;;;;;5051493;28;20730;-73
2023/12/28 12:43:10;;;;;;;1.10;1.10;;;-0.40;99.90;;;;;;5058291;28;20679;-74
2023/12/28 12:45:36;;;;;;;1.85;1.75;;;-0.40;99.90;;;;;;5091525;28;20216;-74
2023/12/28 12:48:04;;;;;;;0.60;0.60;;;-0.30;99.90;;;;;;5090930;28;20675;-73
2023/12/28 12:50:31;;;;;;;1.23;1.20;;;-0.30;99.90;;;;;;5091060;28;20200;-75
2023/12/28 12:53:23;;;;;;;0.68;0.68;;;-0.30;99.90;;;;;;5092538;28;20266;-77
2023/12/28 12:56:01;;;;;;;0.60;0.60;;;-0.20;99.90;;;;;;5068299;28;20747;-75
2023/12/28 12:58:27;;;;;;;1.38;1.27;;;-0.20;99.90;;;;;;5070353;28;20201;-74
2023/12/28 13:00:53;;;;;;;2.53;2.33;;;-0.20;99.90;;;;;;5071349;28;20188;-74
2023/12/28 13:03:20;;;;;;;0.60;0.60;;;-0.10;99.90;;;;;;5070422;28;20231;-73
2023/12/28 13:05:46;;;;;;;0.80;0.80;;;-0.10;99.90;;;;;;5070860;28;20402;-73
2023/12/28 13:08:11;;;;;;;0.93;0.93;;;-0.10;99.90;;;;;;5070451;28;20326;-74
2023/12/28 13:10:37;;;;;;;1.02;1.02;;;-0.10;99.90;;;;;;5069936;28;20203;-73
2023/12/28 13:13:06;;;;;;;0.80;0.80;;;-0.10;99.90;;;;;;5070350;28;20195;-73
2023/12/28 13:15:32;;;;;;;0.80;0.80;;;-0.10;99.90;;;;;;5070294;28;20220;-72
2023/12/28 13:17:58;;;;;;;0.90;0.90;;;-0.10;99.90;;;;;;5070487;28;20197;-70
2023/12/28 13:20:23;;;;;;;0.60;0.60;;;-0.10;99.90;;;;;;5069885;28;20193;-70
2023/12/28 13:22:49;;;;;;;0.73;0.73;;;-0.10;99.90;;;;;;5050898;28;20207;-71
2023/12/28 13:25:15;;;;;;;1.13;1.10;;;-0.10;99.90;;;;;;5070072;28;20689;-71
2023/12/28 13:27:41;;;;;;;0.63;0.63;;;-0.10;99.90;;;;;;5069988;28;20729;-71
2023/12/28 13:30:08;;;;;;;0.60;0.60;;;-0.10;99.90;;;;;;5051501;28;20891;-71
2023/12/28 13:32:33;;;;;;;0.75;0.75;;;-0.10;99.90;;;;;;5073344;28;20223;-71
2023/12/28 13:34:59;;;;;;;0.80;0.80;;;-0.10;99.90;;;;;;5070234;28;20197;-70
2023/12/28 13:37:25;;;;;;;0.60;0.60;;;-0.10;99.90;;;;;;5069932;28;20212;-70
2023/12/28 13:39:51;;;;;;;0.95;0.95;;;-0.10;99.90;;;;;;5084483;28;20200;-72
2023/12/28 13:42:16;;;;;;;0.88;0.88;;;-0.10;99.90;;;;;;5110535;28;20187;-72
2023/12/28 13:44:43;;;;;;;0.68;0.68;;;0.00;99.90;;;;;;5092076;28;20199;-74
2023/12/28 13:47:09;;;;;;;1.85;1.45;;;-0.10;99.90;;;;;;5110447;28;20187;-71
2023/12/28 13:49:34;;;;;;;0.60;0.60;;;-0.10;99.90;;;;;;5110539;28;20527;-70
2023/12/28 13:52:00;;;;;;;0.70;0.70;;;0.00;99.90;;;;;;5103557;28;20677;-70
2023/12/28 13:54:26;;;;;;;0.70;0.70;;;-0.10;99.90;;;;;;5089566;28;20188;-70
2023/12/28 13:56:57;;;;;;;0.70;0.70;;;-0.10;99.90;;;;;;5090050;28;20211;-69
2023/12/28 13:59:23;;;;;;;0.70;0.70;;;-0.10;99.90;;;;;;5089484;28;20541;-70
2023/12/28 14:01:49;;;;;;;0.70;0.70;;;-0.10;99.90;;;;;;5089618;28;20259;-73
2023/12/28 14:04:15;;;;;;;0.77;0.77;;;-0.20;99.90;;;;;;5089755;28;20227;-71
2023/12/28 14:06:40;;;;;;;0.70;0.70;;;-0.20;99.90;;;;;;5089308;28;20188;-70
2023/12/28 14:09:06;;;;;;;0.75;0.75;;;-0.20;99.90;;;;;;5070854;28;20196;-72
2023/12/28 14:11:31;;;;;;;0.60;0.60;;;-0.30;99.90;;;;;;5088987;28;20200;-70
2023/12/28 14:13:57;;;;;;;0.70;0.70;;;-0.30;99.90;;;;;;5089377;28;20202;-71
2023/12/28 14:16:23;;;;;;;0.50;0.50;;;-0.40;99.90;;;;;;5089066;28;20291;-71
2023/12/28 14:18:48;;;;;;;0.70;0.70;;;-0.40;99.90;;;;;;5089121;28;20656;-69
2023/12/28 14:21:15;;;;;;;0.80;0.80;;;-0.40;99.90;;;;;;5089556;28;20275;-69
2023/12/28 14:23:41;;;;;;;0.60;0.60;;;-0.50;99.90;;;;;;5088844;28;20247;-69
2023/12/28 14:26:17;;;;;;;0.70;0.70;;;-0.50;99.90;;;;;;5090717;28;20192;-69
2023/12/28 14:28:44;;;;;;;0.60;0.60;;;-0.50;99.90;;;;;;5080578;28;20224;-68
2023/12/28 14:31:10;;;;;;;0.80;0.80;;;-0.50;99.90;;;;;;5068588;28;20201;-68
2023/12/28 14:33:36;;;;;;;0.70;0.70;;;-0.50;99.90;;;;;;5068705;28;20547;-69
2023/12/28 14:36:04;;;;;;;0.70;0.70;;;-0.50;99.90;;;;;;5081817;28;20208;-69
2023/12/28 14:38:29;;;;;;;0.70;0.70;;;-0.50;99.90;;;;;;5109103;28;20191;-68
2023/12/28 14:40:55;;;;;;;0.70;0.70;;;-0.60;99.90;;;;;;5109290;28;20179;-70
2023/12/28 14:43:21;;;;;;;0.80;0.80;;;-0.50;99.90;;;;;;5090944;28;20554;-67
2023/12/28 14:45:47;;;;;;;0.73;0.73;;;-0.50;99.90;;;;;;5109403;28;20279;-69
2023/12/28 14:48:13;;;;;;;0.90;0.90;;;-0.60;99.90;;;;;;5095199;28;20204;-70
2023/12/28 14:50:39;;;;;;;0.70;0.70;;;-0.60;99.90;;;;;;5088879;28;20279;-70
2023/12/28 14:53:04;;;;;;;0.70;0.70;;;-0.60;99.90;;;;;;5088729;28;20688;-69
2023/12/28 14:55:30;;;;;;;0.60;0.60;;;-0.60;99.90;;;;;;5088588;28;20192;-69
2023/12/28 14:57:56;;;;;;;0.80;0.80;;;-0.60;99.90;;;;;;5088611;28;20202;-69
2023/12/28 15:00:21;;;;;;;0.60;0.60;;;-0.60;99.90;;;;;;5088299;28;20242;-72
2023/12/28 15:02:47;;;;;;;0.50;0.50;;;-0.60;99.90;;;;;;5088415;28;20493;-70
2023/12/28 15:05:13;;;;;;;0.75;0.75;;;-0.60;99.90;;;;;;5088342;28;20559;-71
2023/12/28 15:07:39;;;;;;;0.80;0.80;;;-0.60;99.90;;;;;;5088372;28;20660;-69
2023/12/28 15:10:08;;;;;;;0.82;0.82;;;-0.60;99.90;;;;;;5087953;28;20609;-70
2023/12/28 15:12:34;;;;;;;0.70;0.70;;;-0.60;99.90;;;;;;5069598;28;20470;-69
2023/12/28 15:14:59;;;;;;;0.80;0.80;;;-0.60;99.90;;;;;;5088600;28;20199;-70
2023/12/28 15:17:28;;;;;;;0.60;0.60;;;-0.60;99.90;;;;;;5088231;28;20208;-69
2023/12/28 15:19:53;;;;;;;0.70;0.70;;;-0.70;99.90;;;;;;5087911;28;20192;-72
2023/12/28 15:22:19;;;;;;;0.80;0.80;;;-0.70;99.90;;;;;;5087963;28;20196;-71
2023/12/28 15:24:45;;;;;;;1.55;1.25;;;-0.70;99.90;;;;;;5081735;28;20203;-70
2023/12/28 15:27:12;;;;;;;2.17;1.42;;;-0.70;99.90;;;;;;5067810;28;20201;-69
2023/12/28 15:29:38;;;;;;;0.75;0.75;;;-0.70;99.90;;;;;;5067451;28;20197;-72
2023/12/28 15:32:04;;;;;;;0.85;0.82;;;-0.70;99.90;;;;;;5077389;28;20707;-69
2023/12/28 15:34:29;;;;;;;1.00;1.00;;;-0.70;99.90;;;;;;5124227;27;20206;-72